sensor_id;sensor_type;location;lat;lon;timestamp;pressure;altitude;pressure_sealevel;temperature;humidity
9969;BME280;5025;48.890;9.278;2023-04-22T00:02:18;98131.06;;;13.99;67.44
9969;BME280;5025;48.890;9.278;2023-04-22T00:04:43;98133.19;;;13.97;67.27
9969;BME280;5025;48.890;9.278;2023-04-22T00:07:13;98126.97;;;13.96;67.25
9969;BME280;5025;48.890;9.278;2023-04-22T00:09:39;98137.00;;;13.96;67.28
9969;BME280;5025;48.890;9.278;2023-04-22T00:12:05;98126.94;;;13.91;67.47
9969;BME280;5025;48.890;9.278;2023-04-22T00:14:30;98135.38;;;13.90;67.57
9969;BME280;5025;48.890;9.278;2023-04-22T00:16:56;98134.78;;;13.88;67.54
9969;BME280;5025;48.890;9.278;2023-04-22T00:19:22;98132.06;;;13.88;67.52
9969;BME280;5025;48.890;9.278;2023-04-22T00:21:47;98130.72;;;13.85;67.69
9969;BME280;5025;48.890;9.278;2023-04-22T00:24:12;98128.81;;;13.86;67.71
9969;BME280;5025;48.890;9.278;2023-04-22T00:26:38;98125.00;;;13.81;67.87
9969;BME280;5025;48.890;9.278;2023-04-22T00:29:03;98133.41;;;13.80;67.80
9969;BME280;5025;48.890;9.278;2023-04-22T00:31:28;98123.66;;;13.79;68.01
9969;BME280;5025;48.890;9.278;2023-04-22T00:33:53;98124.72;;;13.78;68.05
9969;BME280;5025;48.890;9.278;2023-04-22T00:36:19;98126.63;;;13.77;68.05
9969;BME280;5025;48.890;9.278;2023-04-22T00:38:47;98123.63;;;13.74;68.15
9969;BME280;5025;48.890;9.278;2023-04-22T00:41:14;98115.72;;;13.67;68.21
9969;BME280;5025;48.890;9.278;2023-04-22T00:43:39;98120.03;;;13.63;68.41
9969;BME280;5025;48.890;9.278;2023-04-22T00:46:05;98122.22;;;13.61;68.54
9969;BME280;5025;48.890;9.278;2023-04-22T00:48:30;98119.22;;;13.57;68.52
9969;BME280;5025;48.890;9.278;2023-04-22T00:50:56;98120.56;;;13.55;68.68
9969;BME280;5025;48.890;9.278;2023-04-22T00:53:21;98123.81;;;13.52;68.64
9969;BME280;5025;48.890;9.278;2023-04-22T00:55:46;98131.94;;;13.52;68.91
9969;BME280;5025;48.890;9.278;2023-04-22T00:58:12;98141.16;;;13.51;68.90
9969;BME280;5025;48.890;9.278;2023-04-22T01:00:37;98123.81;;;13.52;68.70
9969;BME280;5025;48.890;9.278;2023-04-22T01:03:03;98123.25;;;13.50;68.85
9969;BME280;5025;48.890;9.278;2023-04-22T01:05:30;98125.97;;;13.50;68.96
9969;BME280;5025;48.890;9.278;2023-04-22T01:07:56;98119.16;;;13.47;69.08
9969;BME280;5025;48.890;9.278;2023-04-22T01:10:21;98130.03;;;13.47;69.14
9969;BME280;5025;48.890;9.278;2023-04-22T01:12:46;98122.16;;;13.45;69.08
9969;BME280;5025;48.890;9.278;2023-04-22T01:15:12;98125.94;;;13.44;69.38
9969;BME280;5025;48.890;9.278;2023-04-22T01:17:37;98120.50;;;13.44;69.42
9969;BME280;5025;48.890;9.278;2023-04-22T01:20:03;98127.03;;;13.43;69.25
9969;BME280;5025;48.890;9.278;2023-04-22T01:22:34;98125.38;;;13.42;69.54
9969;BME280;5025;48.890;9.278;2023-04-22T01:25:01;98123.19;;;13.39;69.43
9969;BME280;5025;48.890;9.278;2023-04-22T01:27:27;98128.09;;;13.37;69.49
9969;BME280;5025;48.890;9.278;2023-04-22T01:29:52;98127.78;;;13.34;69.72
9969;BME280;5025;48.890;9.278;2023-04-22T01:32:18;98128.84;;;13.33;69.63
9969;BME280;5025;48.890;9.278;2023-04-22T01:34:45;98119.31;;;13.30;69.77
9969;BME280;5025;48.890;9.278;2023-04-22T01:37:11;98125.28;;;13.27;70.08
9969;BME280;5025;48.890;9.278;2023-04-22T01:39:36;98122.00;;;13.25;69.98
9969;BME280;5025;48.890;9.278;2023-04-22T01:42:02;98131.22;;;13.24;69.95
9969;BME280;5025;48.890;9.278;2023-04-22T01:44:27;98120.38;;;13.24;69.92
9969;BME280;5025;48.890;9.278;2023-04-22T01:46:53;98121.69;;;13.21;70.05
9969;BME280;5025;48.890;9.278;2023-04-22T01:49:18;98120.09;;;13.20;70.16
9969;BME280;5025;48.890;9.278;2023-04-22T01:51:43;98121.97;;;13.20;70.23
9969;BME280;5025;48.890;9.278;2023-04-22T01:54:09;98132.25;;;13.18;70.13
9969;BME280;5025;48.890;9.278;2023-04-22T01:56:35;98125.22;;;13.17;70.47
9969;BME280;5025;48.890;9.278;2023-04-22T01:59:00;98132.22;;;13.07;70.42
9969;BME280;5025;48.890;9.278;2023-04-22T02:01:25;98130.31;;;13.08;70.66
9969;BME280;5025;48.890;9.278;2023-04-22T02:03:51;98129.78;;;13.06;70.57
9969;BME280;5025;48.890;9.278;2023-04-22T02:06:16;98131.09;;;13.03;70.63
9969;BME280;5025;48.890;9.278;2023-04-22T02:08:41;98122.69;;;13.00;70.70
9969;BME280;5025;48.890;9.278;2023-04-22T02:11:06;98129.16;;;12.99;70.52
9969;BME280;5025;48.890;9.278;2023-04-22T02:13:39;98137.00;;;12.95;70.96
9969;BME280;5025;48.890;9.278;2023-04-22T02:16:05;98136.66;;;12.86;70.98
9969;BME280;5025;48.890;9.278;2023-04-22T02:18:30;98139.56;;;12.74;71.61
9969;BME280;5025;48.890;9.278;2023-04-22T02:20:56;98144.97;;;12.74;71.60
9969;BME280;5025;48.890;9.278;2023-04-22T02:23:21;98144.97;;;12.74;71.79
9969;BME280;5025;48.890;9.278;2023-04-22T02:25:48;98142.84;;;12.77;71.68
9969;BME280;5025;48.890;9.278;2023-04-22T02:28:13;98147.16;;;12.78;71.63
9969;BME280;5025;48.890;9.278;2023-04-22T02:30:39;98142.84;;;12.77;71.71
9969;BME280;5025;48.890;9.278;2023-04-22T02:33:04;98150.66;;;12.73;71.91
9969;BME280;5025;48.890;9.278;2023-04-22T02:35:29;98147.94;;;12.73;72.07
9969;BME280;5025;48.890;9.278;2023-04-22T02:37:54;98151.47;;;12.73;72.02
9969;BME280;5025;48.890;9.278;2023-04-22T02:40:20;98151.75;;;12.72;72.00
9969;BME280;5025;48.890;9.278;2023-04-22T02:42:45;98154.72;;;12.70;72.01
9969;BME280;5025;48.890;9.278;2023-04-22T02:45:12;98153.06;;;12.69;72.10
9969;BME280;5025;48.890;9.278;2023-04-22T02:47:38;98151.16;;;12.70;72.44
9969;BME280;5025;48.890;9.278;2023-04-22T02:50:05;98150.63;;;12.68;72.29
9969;BME280;5025;48.890;9.278;2023-04-22T02:52:32;98152.50;;;12.67;72.29
9969;BME280;5025;48.890;9.278;2023-04-22T02:54:57;98158.75;;;12.68;72.49
9969;BME280;5025;48.890;9.278;2023-04-22T02:57:22;98157.34;;;12.65;72.68
9969;BME280;5025;48.890;9.278;2023-04-22T02:59:48;98153.84;;;12.65;72.71
9969;BME280;5025;48.890;9.278;2023-04-22T03:02:13;98157.34;;;12.65;72.69
9969;BME280;5025;48.890;9.278;2023-04-22T03:04:38;98151.94;;;12.65;72.71
9969;BME280;5025;48.890;9.278;2023-04-22T03:07:03;98159.53;;;12.68;72.89
9969;BME280;5025;48.890;9.278;2023-04-22T03:09:29;98156.84;;;12.68;73.02
9969;BME280;5025;48.890;9.278;2023-04-22T03:11:54;98163.34;;;12.67;72.95
9969;BME280;5025;48.890;9.278;2023-04-22T03:14:20;98155.22;;;12.67;72.94
9969;BME280;5025;48.890;9.278;2023-04-22T03:16:45;98151.94;;;12.65;73.12
9969;BME280;5025;48.890;9.278;2023-04-22T03:19:10;98144.31;;;12.62;73.22
9969;BME280;5025;48.890;9.278;2023-04-22T03:21:35;98147.81;;;12.58;73.43
9969;BME280;5025;48.890;9.278;2023-04-22T03:24:01;98150.78;;;12.56;73.40
9969;BME280;5025;48.890;9.278;2023-04-22T03:26:26;98137.75;;;12.53;73.74
9969;BME280;5025;48.890;9.278;2023-04-22T03:28:51;98141.84;;;12.55;73.78
9969;BME280;5025;48.890;9.278;2023-04-22T03:31:17;98137.75;;;12.53;73.39
9969;BME280;5025;48.890;9.278;2023-04-22T03:33:42;98141.53;;;12.52;73.71
9969;BME280;5025;48.890;9.278;2023-04-22T03:36:07;98141.22;;;12.48;73.69
9969;BME280;5025;48.890;9.278;2023-04-22T03:38:32;98142.50;;;12.41;73.84
9969;BME280;5025;48.890;9.278;2023-04-22T03:40:58;98141.94;;;12.38;73.93
9969;BME280;5025;48.890;9.278;2023-04-22T03:43:23;98140.31;;;12.37;73.88
9969;BME280;5025;48.890;9.278;2023-04-22T03:45:49;98146.31;;;12.40;73.87
9969;BME280;5025;48.890;9.278;2023-04-22T03:48:15;98149.00;;;12.40;73.84
9969;BME280;5025;48.890;9.278;2023-04-22T03:50:40;98148.34;;;12.27;73.95
9969;BME280;5025;48.890;9.278;2023-04-22T03:53:05;98146.16;;;12.24;74.11
9969;BME280;5025;48.890;9.278;2023-04-22T03:55:31;98139.91;;;12.24;74.18
9969;BME280;5025;48.890;9.278;2023-04-22T03:57:57;98149.91;;;12.23;74.08
9969;BME280;5025;48.890;9.278;2023-04-22T04:00:22;98143.38;;;12.19;74.03
9969;BME280;5025;48.890;9.278;2023-04-22T04:02:47;98149.28;;;12.16;74.64
9969;BME280;5025;48.890;9.278;2023-04-22T04:05:13;98149.28;;;12.16;74.41
9969;BME280;5025;48.890;9.278;2023-04-22T04:07:38;98146.59;;;12.16;74.34
9969;BME280;5025;48.890;9.278;2023-04-22T04:10:04;98146.03;;;12.14;74.39
9969;BME280;5025;48.890;9.278;2023-04-22T04:12:29;98139.81;;;12.13;74.33
9969;BME280;5025;48.890;9.278;2023-04-22T04:14:54;98148.19;;;12.12;74.25
9969;BME280;5025;48.890;9.278;2023-04-22T04:17:20;98139.50;;;12.10;74.29
9969;BME280;5025;48.890;9.278;2023-04-22T04:19:45;98137.88;;;12.09;74.26
9969;BME280;5025;48.890;9.278;2023-04-22T04:22:11;98131.31;;;12.05;74.33
9969;BME280;5025;48.890;9.278;2023-04-22T04:24:36;98145.09;;;12.03;74.80
9969;BME280;5025;48.890;9.278;2023-04-22T04:27:06;98141.53;;;11.97;74.74
9969;BME280;5025;48.890;9.278;2023-04-22T04:29:31;98138.75;;;11.92;75.05
9969;BME280;5025;48.890;9.278;2023-04-22T04:31:56;98146.28;;;11.90;75.05
9969;BME280;5025;48.890;9.278;2023-04-22T04:34:22;98142.19;;;11.88;75.11
9969;BME280;5025;48.890;9.278;2023-04-22T04:36:47;98133.28;;;11.87;75.16
9969;BME280;5025;48.890;9.278;2023-04-22T04:39:12;98139.75;;;11.86;75.35
9969;BME280;5025;48.890;9.278;2023-04-22T04:41:41;98151.13;;;11.88;75.32
9969;BME280;5025;48.890;9.278;2023-04-22T04:44:09;98140.00;;;11.84;75.25
9969;BME280;5025;48.890;9.278;2023-04-22T04:46:35;98149.22;;;11.83;75.60
9969;BME280;5025;48.890;9.278;2023-04-22T04:49:02;98148.38;;;11.83;75.45
9969;BME280;5025;48.890;9.278;2023-04-22T04:51:29;98143.47;;;11.80;75.35
9969;BME280;5025;48.890;9.278;2023-04-22T04:53:56;98149.13;;;11.78;75.84
9969;BME280;5025;48.890;9.278;2023-04-22T04:56:21;98141.84;;;11.79;75.59
9969;BME280;5025;48.890;9.278;2023-04-22T04:58:47;98145.88;;;11.76;75.80
9969;BME280;5025;48.890;9.278;2023-04-22T05:01:12;98150.47;;;11.76;75.82
9969;BME280;5025;48.890;9.278;2023-04-22T05:03:38;98148.56;;;11.76;75.82
9969;BME280;5025;48.890;9.278;2023-04-22T05:06:03;98143.72;;;11.78;76.11
9969;BME280;5025;48.890;9.278;2023-04-22T05:08:28;98137.50;;;11.78;75.98
9969;BME280;5025;48.890;9.278;2023-04-22T05:10:54;98151.56;;;11.80;75.88
9969;BME280;5025;48.890;9.278;2023-04-22T05:13:20;98144.56;;;11.79;75.93
9969;BME280;5025;48.890;9.278;2023-04-22T05:15:46;98142.41;;;11.81;75.97
9969;BME280;5025;48.890;9.278;2023-04-22T05:18:12;98139.44;;;11.82;76.15
9969;BME280;5025;48.890;9.278;2023-04-22T05:20:37;98145.97;;;11.87;75.91
9969;BME280;5025;48.890;9.278;2023-04-22T05:23:02;98136.78;;;11.88;75.76
9969;BME280;5025;48.890;9.278;2023-04-22T05:25:27;98144.66;;;11.89;76.02
9969;BME280;5025;48.890;9.278;2023-04-22T05:27:53;98141.69;;;11.91;75.89
9969;BME280;5025;48.890;9.278;2023-04-22T05:30:18;98138.44;;;11.89;75.82
9969;BME280;5025;48.890;9.278;2023-04-22T05:32:43;98139.25;;;11.89;75.92
9969;BME280;5025;48.890;9.278;2023-04-22T05:35:10;98147.34;;;11.89;75.86
9969;BME280;5025;48.890;9.278;2023-04-22T05:37:35;98150.31;;;11.88;75.73
9969;BME280;5025;48.890;9.278;2023-04-22T05:40:00;98155.16;;;11.86;75.86
9969;BME280;5025;48.890;9.278;2023-04-22T05:42:26;98154.91;;;11.87;75.95
9969;BME280;5025;48.890;9.278;2023-04-22T05:44:51;98156.53;;;11.88;75.72
9969;BME280;5025;48.890;9.278;2023-04-22T05:47:16;98154.38;;;11.85;75.82
9969;BME280;5025;48.890;9.278;2023-04-22T05:49:41;98153.53;;;11.84;75.78
9969;BME280;5025;48.890;9.278;2023-04-22T05:52:07;98149.47;;;11.82;76.06
9969;BME280;5025;48.890;9.278;2023-04-22T05:54:32;98151.06;;;11.83;75.92
9969;BME280;5025;48.890;9.278;2023-04-22T05:56:57;98159.78;;;11.85;75.85
9969;BME280;5025;48.890;9.278;2023-04-22T05:59:23;98167.88;;;11.85;75.96
9969;BME280;5025;48.890;9.278;2023-04-22T06:01:48;98166.50;;;11.82;75.97
9969;BME280;5025;48.890;9.278;2023-04-22T06:04:14;98172.97;;;11.81;76.00
9969;BME280;5025;48.890;9.278;2023-04-22T06:06:39;98166.50;;;11.82;76.10
9969;BME280;5025;48.890;9.278;2023-04-22T06:09:04;98175.41;;;11.83;76.12
9969;BME280;5025;48.890;9.278;2023-04-22T06:11:31;98174.91;;;11.86;75.96
9969;BME280;5025;48.890;9.278;2023-04-22T06:13:56;98173.84;;;11.87;75.86
9969;BME280;5025;48.890;9.278;2023-04-22T06:16:22;98167.94;;;11.90;75.85
9969;BME280;5025;48.890;9.278;2023-04-22T06:18:47;98172.88;;;11.93;75.66
9969;BME280;5025;48.890;9.278;2023-04-22T06:21:13;98166.72;;;11.98;75.61
9969;BME280;5025;48.890;9.278;2023-04-22T06:23:38;98168.66;;;12.02;75.88
9969;BME280;5025;48.890;9.278;2023-04-22T06:26:04;98167.91;;;12.07;75.91
9969;BME280;5025;48.890;9.278;2023-04-22T06:28:29;98171.47;;;12.13;75.56
9969;BME280;5025;48.890;9.278;2023-04-22T06:30:55;98161.75;;;12.17;75.48
9969;BME280;5025;48.890;9.278;2023-04-22T06:33:20;98160.75;;;12.23;75.53
9969;BME280;5025;48.890;9.278;2023-04-22T06:35:45;98164.63;;;12.32;75.27
9969;BME280;5025;48.890;9.278;2023-04-22T06:38:11;98159.84;;;12.40;75.08
9969;BME280;5025;48.890;9.278;2023-04-22T06:40:36;98169.94;;;12.49;74.49
9969;BME280;5025;48.890;9.278;2023-04-22T06:43:01;98176.25;;;12.55;74.20
9969;BME280;5025;48.890;9.278;2023-04-22T06:45:26;98177.34;;;12.59;73.84
9969;BME280;5025;48.890;9.278;2023-04-22T06:47:52;98166.50;;;12.59;73.97
9969;BME280;5025;48.890;9.278;2023-04-22T06:50:20;98172.50;;;12.61;74.04
9969;BME280;5025;48.890;9.278;2023-04-22T06:52:45;98178.94;;;12.55;74.38
9969;BME280;5025;48.890;9.278;2023-04-22T06:55:11;98174.59;;;12.54;74.41
9969;BME280;5025;48.890;9.278;2023-04-22T06:57:37;98179.84;;;12.38;75.67
9969;BME280;5025;48.890;9.278;2023-04-22T07:00:06;98174.69;;;12.37;76.07
9969;BME280;5025;48.890;9.278;2023-04-22T07:02:34;98173.00;;;12.31;76.52
9969;BME280;5025;48.890;9.278;2023-04-22T07:05:00;98177.28;;;12.27;76.87
9969;BME280;5025;48.890;9.278;2023-04-22T07:07:25;98174.28;;;12.23;77.22
9969;BME280;5025;48.890;9.278;2023-04-22T07:09:51;98169.75;;;12.29;77.68
9969;BME280;5025;48.890;9.278;2023-04-22T07:12:16;98179.34;;;12.42;77.22
9969;BME280;5025;48.890;9.278;2023-04-22T07:14:45;98169.22;;;12.59;76.56
9969;BME280;5025;48.890;9.278;2023-04-22T07:17:11;98162.34;;;12.79;75.96
9969;BME280;5025;48.890;9.278;2023-04-22T07:19:37;98169.47;;;12.90;75.48
9969;BME280;5025;48.890;9.278;2023-04-22T07:22:02;98167.41;;;13.02;75.00
9969;BME280;5025;48.890;9.278;2023-04-22T07:24:28;98171.53;;;13.10;74.91
9969;BME280;5025;48.890;9.278;2023-04-22T07:26:53;98161.53;;;13.16;74.60
9969;BME280;5025;48.890;9.278;2023-04-22T07:29:19;98158.59;;;13.22;74.60
9969;BME280;5025;48.890;9.278;2023-04-22T07:31:44;98163.25;;;13.32;74.20
9969;BME280;5025;48.890;9.278;2023-04-22T07:34:09;98157.38;;;13.40;74.00
9969;BME280;5025;48.890;9.278;2023-04-22T07:36:35;98151.75;;;13.52;73.73
9969;BME280;5025;48.890;9.278;2023-04-22T07:39:00;98147.75;;;13.65;72.66
9969;BME280;5025;48.890;9.278;2023-04-22T07:41:26;98148.34;;;13.77;71.86
9969;BME280;5025;48.890;9.278;2023-04-22T07:43:51;98140.22;;;13.88;70.99
9969;BME280;5025;48.890;9.278;2023-04-22T07:46:17;98141.91;;;13.99;70.53
9969;BME280;5025;48.890;9.278;2023-04-22T07:48:42;98136.78;;;14.13;69.97
9969;BME280;5025;48.890;9.278;2023-04-22T07:51:07;98136.25;;;14.26;68.89
9969;BME280;5025;48.890;9.278;2023-04-22T07:53:33;98137.38;;;14.41;68.62
9969;BME280;5025;48.890;9.278;2023-04-22T07:56:00;98141.72;;;14.52;67.72
9969;BME280;5025;48.890;9.278;2023-04-22T07:58:25;98151.81;;;14.62;66.65
9969;BME280;5025;48.890;9.278;2023-04-22T08:00:50;98150.72;;;14.68;66.40
9969;BME280;5025;48.890;9.278;2023-04-22T08:03:16;98153.75;;;14.77;65.71
9969;BME280;5025;48.890;9.278;2023-04-22T08:05:41;98145.31;;;14.83;64.73
9969;BME280;5025;48.890;9.278;2023-04-22T08:08:06;98152.09;;;14.91;63.56
9969;BME280;5025;48.890;9.278;2023-04-22T08:10:31;98156.44;;;14.97;62.68
9969;BME280;5025;48.890;9.278;2023-04-22T08:12:57;98160.53;;;15.00;61.61
9969;BME280;5025;48.890;9.278;2023-04-22T08:15:22;98157.00;;;15.04;60.54
9969;BME280;5025;48.890;9.278;2023-04-22T08:17:47;98161.06;;;15.12;60.01
9969;BME280;5025;48.890;9.278;2023-04-22T08:20:13;98164.31;;;15.14;60.10
9969;BME280;5025;48.890;9.278;2023-04-22T08:22:39;98164.84;;;15.16;59.96
9969;BME280;5025;48.890;9.278;2023-04-22T08:25:07;98160.50;;;15.20;59.01
9969;BME280;5025;48.890;9.278;2023-04-22T08:27:33;98163.75;;;15.22;57.96
9969;BME280;5025;48.890;9.278;2023-04-22T08:29:58;98168.38;;;15.22;58.06
9969;BME280;5025;48.890;9.278;2023-04-22T08:32:23;98159.94;;;15.23;58.06
9969;BME280;5025;48.890;9.278;2023-04-22T08:34:50;98158.56;;;15.31;58.28
9969;BME280;5025;48.890;9.278;2023-04-22T08:37:15;98157.50;;;15.32;57.82
9969;BME280;5025;48.890;9.278;2023-04-22T08:39:41;98157.22;;;15.34;57.97
9969;BME280;5025;48.890;9.278;2023-04-22T08:42:06;98162.38;;;15.35;57.82
9969;BME280;5025;48.890;9.278;2023-04-22T08:44:34;98168.09;;;15.39;57.80
9969;BME280;5025;48.890;9.278;2023-04-22T08:47:00;98161.56;;;15.40;57.55
9969;BME280;5025;48.890;9.278;2023-04-22T08:49:25;98163.72;;;15.43;57.65
9969;BME280;5025;48.890;9.278;2023-04-22T08:51:52;98149.84;;;15.45;57.70
9969;BME280;5025;48.890;9.278;2023-04-22T08:54:18;98164.78;;;15.47;57.76
9969;BME280;5025;48.890;9.278;2023-04-22T08:56:43;98150.06;;;15.53;57.75
9969;BME280;5025;48.890;9.278;2023-04-22T08:59:12;98143.53;;;15.59;57.99
9969;BME280;5025;48.890;9.278;2023-04-22T09:01:39;98155.19;;;15.70;57.71
9969;BME280;5025;48.890;9.278;2023-04-22T09:04:05;98156.28;;;15.80;57.70
9969;BME280;5025;48.890;9.278;2023-04-22T09:06:32;98150.53;;;15.86;57.58
9969;BME280;5025;48.890;9.278;2023-04-22T09:08:59;98143.16;;;15.92;57.39
9969;BME280;5025;48.890;9.278;2023-04-22T09:11:26;98140.69;;;16.01;57.07
9969;BME280;5025;48.890;9.278;2023-04-22T09:13:53;98143.59;;;16.09;56.77
9969;BME280;5025;48.890;9.278;2023-04-22T09:16:18;98130.22;;;16.18;56.71
9969;BME280;5025;48.890;9.278;2023-04-22T09:18:44;98133.75;;;16.24;56.46
9969;BME280;5025;48.890;9.278;2023-04-22T09:21:10;98124.13;;;16.37;56.05
9969;BME280;5025;48.890;9.278;2023-04-22T09:23:52;98127.00;;;16.51;55.96
9969;BME280;5025;48.890;9.278;2023-04-22T09:26:23;98122.81;;;16.63;55.49
9969;BME280;5025;48.890;9.278;2023-04-22T09:28:51;98126.00;;;16.76;55.10
9969;BME280;5025;48.890;9.278;2023-04-22T09:31:17;98123.22;;;16.86;53.95
9969;BME280;5025;48.890;9.278;2023-04-22T09:33:55;98114.41;;;16.94;53.83
9969;BME280;5025;48.890;9.278;2023-04-22T09:36:28;98120.88;;;17.03;53.68
9969;BME280;5025;48.890;9.278;2023-04-22T09:38:59;98114.19;;;17.15;53.23
9969;BME280;5025;48.890;9.278;2023-04-22T09:41:28;98117.94;;;17.24;52.96
9969;BME280;5025;48.890;9.278;2023-04-22T09:43:55;98118.41;;;17.31;52.73
9969;BME280;5025;48.890;9.278;2023-04-22T09:46:23;98118.34;;;17.36;51.84
9969;BME280;5025;48.890;9.278;2023-04-22T09:48:49;98119.63;;;17.44;51.39
9969;BME280;5025;48.890;9.278;2023-04-22T09:51:15;98118.72;;;17.54;51.16
9969;BME280;5025;48.890;9.278;2023-04-22T09:53:41;98113.66;;;17.66;50.64
9969;BME280;5025;48.890;9.278;2023-04-22T09:56:07;98109.75;;;17.72;49.99
9969;BME280;5025;48.890;9.278;2023-04-22T09:58:37;98109.03;;;17.86;49.19
9969;BME280;5025;48.890;9.278;2023-04-22T10:01:03;98101.03;;;17.95;48.80
9969;BME280;5025;48.890;9.278;2023-04-22T10:03:28;98102.28;;;18.02;48.39
9969;BME280;5025;48.890;9.278;2023-04-22T10:05:54;98099.19;;;18.09;47.86
9969;BME280;5025;48.890;9.278;2023-04-22T10:08:19;98094.69;;;18.18;47.70
9969;BME280;5025;48.890;9.278;2023-04-22T10:10:44;98091.72;;;18.34;47.51
9969;BME280;5025;48.890;9.278;2023-04-22T10:13:10;98084.09;;;18.50;47.48
9969;BME280;5025;48.890;9.278;2023-04-22T10:15:39;98087.47;;;18.60;47.21
9969;BME280;5025;48.890;9.278;2023-04-22T10:18:07;98082.44;;;18.68;46.65
9969;BME280;5025;48.890;9.278;2023-04-22T10:20:36;98085.06;;;18.73;46.15
9969;BME280;5025;48.890;9.278;2023-04-22T10:23:04;98079.91;;;18.71;45.87
9969;BME280;5025;48.890;9.278;2023-04-22T10:25:30;98081.91;;;18.85;45.74
9969;BME280;5025;48.890;9.278;2023-04-22T10:28:05;98084.38;;;19.00;44.82
9969;BME280;5025;48.890;9.278;2023-04-22T10:30:33;98085.59;;;19.08;44.11
9969;BME280;5025;48.890;9.278;2023-04-22T10:41:34;98080.03;;;19.55;42.83
9969;BME280;5025;48.890;9.278;2023-04-22T10:44:01;98072.44;;;19.51;40.19
9969;BME280;5025;48.890;9.278;2023-04-22T10:49:08;98064.72;;;19.67;40.43
9969;BME280;5025;48.890;9.278;2023-04-22T10:51:44;98052.75;;;19.77;40.50
9969;BME280;5025;48.890;9.278;2023-04-22T10:57:06;98046.38;;;20.04;40.36
9969;BME280;5025;48.890;9.278;2023-04-22T10:59:40;98057.69;;;20.26;40.30
9969;BME280;5025;48.890;9.278;2023-04-22T11:02:06;98052.47;;;20.38;40.28
9969;BME280;5025;48.890;9.278;2023-04-22T11:04:32;98036.88;;;20.47;40.17
9969;BME280;5025;48.890;9.278;2023-04-22T11:09:39;98046.47;;;20.81;39.94
9969;BME280;5025;48.890;9.278;2023-04-22T11:15:07;98036.59;;;21.03;39.41
9969;BME280;5025;48.890;9.278;2023-04-22T11:17:34;98036.09;;;21.01;38.61
9969;BME280;5025;48.890;9.278;2023-04-22T11:20:01;98030.16;;;21.07;38.88
9969;BME280;5025;48.890;9.278;2023-04-22T11:22:27;98032.31;;;21.28;38.94
9969;BME280;5025;48.890;9.278;2023-04-22T11:24:57;98023.78;;;21.47;38.72
9969;BME280;5025;48.890;9.278;2023-04-22T11:27:23;98034.88;;;21.64;38.52
9969;BME280;5025;48.890;9.278;2023-04-22T11:30:03;98032.31;;;21.77;38.66
9969;BME280;5025;48.890;9.278;2023-04-22T11:32:29;98025.38;;;21.88;38.34
9969;BME280;5025;48.890;9.278;2023-04-22T11:34:55;98027.50;;;22.00;37.95
9969;BME280;5025;48.890;9.278;2023-04-22T11:37:21;98021.50;;;22.15;37.81
9969;BME280;5025;48.890;9.278;2023-04-22T11:39:47;98014.88;;;22.34;37.63
9969;BME280;5025;48.890;9.278;2023-04-22T11:42:12;98009.69;;;22.41;37.40
9969;BME280;5025;48.890;9.278;2023-04-22T11:44:38;98000.81;;;22.35;37.14
9969;BME280;5025;48.890;9.278;2023-04-22T11:47:04;97996.75;;;22.07;34.55
9969;BME280;5025;48.890;9.278;2023-04-22T11:49:29;98005.47;;;22.17;34.82
9969;BME280;5025;48.890;9.278;2023-04-22T11:51:59;98004.31;;;22.27;34.00
9969;BME280;5025;48.890;9.278;2023-04-22T11:54:35;97995.28;;;22.44;33.94
9969;BME280;5025;48.890;9.278;2023-04-22T11:57:02;97998.31;;;22.60;32.91
9969;BME280;5025;48.890;9.278;2023-04-22T11:59:28;98002.22;;;22.59;32.13
9969;BME280;5025;48.890;9.278;2023-04-22T12:01:53;97997.19;;;22.52;32.28
9969;BME280;5025;48.890;9.278;2023-04-22T12:04:21;98000.91;;;22.48;31.92
9969;BME280;5025;48.890;9.278;2023-04-22T12:06:51;98004.97;;;22.42;30.77
9969;BME280;5025;48.890;9.278;2023-04-22T12:09:16;98004.00;;;22.29;31.09
9969;BME280;5025;48.890;9.278;2023-04-22T12:11:47;97998.84;;;22.18;31.93
9969;BME280;5025;48.890;9.278;2023-04-22T12:14:12;98002.88;;;22.21;32.34
9969;BME280;5025;48.890;9.278;2023-04-22T12:16:41;98004.19;;;22.24;32.15
9969;BME280;5025;48.890;9.278;2023-04-22T12:19:06;97988.50;;;22.15;31.11
9969;BME280;5025;48.890;9.278;2023-04-22T12:21:32;97997.22;;;22.17;30.58
9969;BME280;5025;48.890;9.278;2023-04-22T12:23:59;97986.88;;;22.14;30.60
9969;BME280;5025;48.890;9.278;2023-04-22T12:26:25;97993.69;;;22.17;30.91
9969;BME280;5025;48.890;9.278;2023-04-22T12:28:51;97999.31;;;22.12;30.22
9969;BME280;5025;48.890;9.278;2023-04-22T12:31:18;98009.38;;;22.08;29.83
9969;BME280;5025;48.890;9.278;2023-04-22T12:33:44;97997.91;;;21.97;30.12
9969;BME280;5025;48.890;9.278;2023-04-22T12:36:10;97995.28;;;22.00;29.89
9969;BME280;5025;48.890;9.278;2023-04-22T12:38:36;97999.34;;;22.03;30.31
9969;BME280;5025;48.890;9.278;2023-04-22T12:41:03;97999.34;;;22.03;30.08
9969;BME280;5025;48.890;9.278;2023-04-22T12:43:29;97999.97;;;21.91;31.07
9969;BME280;5025;48.890;9.278;2023-04-22T12:45:57;97987.34;;;21.73;31.14
9969;BME280;5025;48.890;9.278;2023-04-22T12:48:22;98003.06;;;21.72;31.35
9969;BME280;5025;48.890;9.278;2023-04-22T12:50:48;97991.41;;;21.66;32.41
9969;BME280;5025;48.890;9.278;2023-04-22T12:53:14;97995.44;;;21.69;32.63
9969;BME280;5025;48.890;9.278;2023-04-22T12:55:40;97994.78;;;21.63;32.19
9969;BME280;5025;48.890;9.278;2023-04-22T12:58:06;98002.03;;;21.59;31.80
9969;BME280;5025;48.890;9.278;2023-04-22T13:00:31;98001.81;;;21.47;31.78
9969;BME280;5025;48.890;9.278;2023-04-22T13:02:57;97997.34;;;21.51;32.12
9969;BME280;5025;48.890;9.278;2023-04-22T13:05:23;97997.69;;;21.58;32.49
9969;BME280;5025;48.890;9.278;2023-04-22T13:07:49;97997.34;;;21.51;32.91
9969;BME280;5025;48.890;9.278;2023-04-22T13:10:15;97998.59;;;21.45;33.53
9969;BME280;5025;48.890;9.278;2023-04-22T13:12:41;97993.09;;;21.45;33.93
9969;BME280;5025;48.890;9.278;2023-04-22T13:15:08;97992.31;;;21.44;34.01
9969;BME280;5025;48.890;9.278;2023-04-22T13:17:34;97996.97;;;21.44;34.17
9969;BME280;5025;48.890;9.278;2023-04-22T13:20:00;97998.09;;;21.34;34.16
9969;BME280;5025;48.890;9.278;2023-04-22T13:22:25;98006.28;;;21.25;33.36
9969;BME280;5025;48.890;9.278;2023-04-22T13:24:51;98000.47;;;21.18;33.55
9969;BME280;5025;48.890;9.278;2023-04-22T13:27:18;97997.72;;;21.18;34.51
9969;BME280;5025;48.890;9.278;2023-04-22T13:29:44;97992.88;;;21.24;35.24
9969;BME280;5025;48.890;9.278;2023-04-22T13:32:09;98001.59;;;21.17;37.25
9969;BME280;5025;48.890;9.278;2023-04-22T13:34:35;98009.94;;;21.03;37.42
9969;BME280;5025;48.890;9.278;2023-04-22T13:37:00;97992.59;;;20.85;37.81